Yuryuzan', Russia
Current Conditions -  °F | °C
As of 2:30 PM on Monday 20 Oct 2014 (Local Time) from USCM Reporting Station
Snow Showers Snow Showers  
Wind Chill: 11°   Ceiling: 2100
Heat Index: 25°   Visibility: 6mi
Dew Point:   Wind: 18mph
Humidity: 50%   Direction: 350°N
Pressure: 29.62"   Gusts: NA
Location:  54.45°N, 58.46°E
Report Text: USCM 200930Z 35008MPS 9999 -SHSN BKN021CB M04/M13 Q1003 NOSIG01090065 RMK QFE714
Loading
Personal Weather Stations






























Interactive Weather Map
Tropical Storm Tracking
New forecast layout! Learn more

10-Day Weather Forecast

Advertisements
Track Severe Weather on mobile